sensor_id;sensor_type;location;lat;lon;timestamp;P1;durP1;ratioP1;P2;durP2;ratioP2
28373;SDS011;15616;40.148;-102.718;2022-12-07T00:01:20;6.38;;;2.05;;
28373;SDS011;15616;40.148;-102.718;2022-12-07T00:03:48;7.60;;;2.20;;
28373;SDS011;15616;40.148;-102.718;2022-12-07T00:06:16;5.18;;;2.00;;
28373;SDS011;15616;40.148;-102.718;2022-12-07T00:08:42;5.82;;;2.03;;
28373;SDS011;15616;40.148;-102.718;2022-12-07T00:11:12;7.30;;;2.08;;
28373;SDS011;15616;40.148;-102.718;2022-12-07T00:13:41;8.70;;;2.20;;
28373;SDS011;15616;40.148;-102.718;2022-12-07T00:16:08;8.73;;;2.58;;
28373;SDS011;15616;40.148;-102.718;2022-12-07T00:18:36;5.18;;;1.70;;
28373;SDS011;15616;40.148;-102.718;2022-12-07T00:21:10;5.38;;;1.98;;
28373;SDS011;15616;40.148;-102.718;2022-12-07T00:23:41;6.32;;;1.90;;
28373;SDS011;15616;40.148;-102.718;2022-12-07T00:26:18;6.40;;;2.03;;
28373;SDS011;15616;40.148;-102.718;2022-12-07T00:28:49;5.53;;;2.35;;
28373;SDS011;15616;40.148;-102.718;2022-12-07T00:31:18;5.78;;;1.98;;
28373;SDS011;15616;40.148;-102.718;2022-12-07T00:33:46;7.03;;;2.25;;
28373;SDS011;15616;40.148;-102.718;2022-12-07T00:36:13;6.82;;;2.28;;
28373;SDS011;15616;40.148;-102.718;2022-12-07T00:38:42;6.03;;;2.00;;
28373;SDS011;15616;40.148;-102.718;2022-12-07T00:41:12;6.15;;;2.00;;
28373;SDS011;15616;40.148;-102.718;2022-12-07T00:43:43;6.15;;;2.22;;
28373;SDS011;15616;40.148;-102.718;2022-12-07T00:46:10;7.28;;;2.20;;
28373;SDS011;15616;40.148;-102.718;2022-12-07T00:48:37;6.00;;;1.63;;
28373;SDS011;15616;40.148;-102.718;2022-12-07T00:51:03;6.70;;;2.30;;
28373;SDS011;15616;40.148;-102.718;2022-12-07T00:53:30;6.90;;;2.13;;
28373;SDS011;15616;40.148;-102.718;2022-12-07T00:56:04;5.45;;;2.28;;
28373;SDS011;15616;40.148;-102.718;2022-12-07T00:58:30;5.90;;;1.92;;
28373;SDS011;15616;40.148;-102.718;2022-12-07T01:00:59;9.68;;;2.15;;
28373;SDS011;15616;40.148;-102.718;2022-12-07T01:03:26;5.35;;;1.85;;
28373;SDS011;15616;40.148;-102.718;2022-12-07T01:05:53;7.00;;;2.00;;
28373;SDS011;15616;40.148;-102.718;2022-12-07T01:08:20;6.10;;;2.20;;
28373;SDS011;15616;40.148;-102.718;2022-12-07T01:10:47;8.05;;;1.88;;
28373;SDS011;15616;40.148;-102.718;2022-12-07T01:13:13;6.93;;;2.33;;
28373;SDS011;15616;40.148;-102.718;2022-12-07T01:15:43;4.65;;;1.65;;
28373;SDS011;15616;40.148;-102.718;2022-12-07T01:18:10;6.55;;;2.33;;
28373;SDS011;15616;40.148;-102.718;2022-12-07T01:20:36;7.07;;;2.20;;
28373;SDS011;15616;40.148;-102.718;2022-12-07T01:23:02;6.22;;;2.00;;
28373;SDS011;15616;40.148;-102.718;2022-12-07T01:25:29;7.68;;;2.00;;
28373;SDS011;15616;40.148;-102.718;2022-12-07T01:27:54;4.38;;;2.03;;
28373;SDS011;15616;40.148;-102.718;2022-12-07T01:30:20;6.03;;;1.83;;
28373;SDS011;15616;40.148;-102.718;2022-12-07T01:32:46;7.43;;;2.22;;
28373;SDS011;15616;40.148;-102.718;2022-12-07T01:35:12;5.15;;;2.15;;
28373;SDS011;15616;40.148;-102.718;2022-12-07T01:37:38;6.65;;;2.17;;
28373;SDS011;15616;40.148;-102.718;2022-12-07T01:40:05;5.30;;;1.90;;
28373;SDS011;15616;40.148;-102.718;2022-12-07T01:42:33;4.00;;;1.70;;
28373;SDS011;15616;40.148;-102.718;2022-12-07T01:47:45;4.30;;;1.48;;
28373;SDS011;15616;40.148;-102.718;2022-12-07T01:50:16;6.35;;;2.00;;
28373;SDS011;15616;40.148;-102.718;2022-12-07T01:52:43;7.22;;;1.77;;
28373;SDS011;15616;40.148;-102.718;2022-12-07T01:55:14;6.38;;;1.63;;
28373;SDS011;15616;40.148;-102.718;2022-12-07T01:57:42;5.57;;;1.73;;
28373;SDS011;15616;40.148;-102.718;2022-12-07T02:00:13;5.32;;;1.70;;
28373;SDS011;15616;40.148;-102.718;2022-12-07T02:05:27;7.60;;;2.08;;
28373;SDS011;15616;40.148;-102.718;2022-12-07T02:07:54;5.18;;;1.98;;
28373;SDS011;15616;40.148;-102.718;2022-12-07T02:10:28;5.43;;;1.80;;
28373;SDS011;15616;40.148;-102.718;2022-12-07T02:12:57;8.00;;;2.22;;
28373;SDS011;15616;40.148;-102.718;2022-12-07T02:15:39;4.60;;;1.70;;
28373;SDS011;15616;40.148;-102.718;2022-12-07T02:18:16;5.40;;;1.90;;
28373;SDS011;15616;40.148;-102.718;2022-12-07T02:23:59;5.68;;;1.83;;
28373;SDS011;15616;40.148;-102.718;2022-12-07T02:34:49;6.32;;;1.52;;
28373;SDS011;15616;40.148;-102.718;2022-12-07T02:37:38;4.72;;;1.88;;
28373;SDS011;15616;40.148;-102.718;2022-12-07T02:40:20;5.47;;;1.90;;
28373;SDS011;15616;40.148;-102.718;2022-12-07T02:42:52;6.20;;;1.95;;
28373;SDS011;15616;40.148;-102.718;2022-12-07T02:45:29;5.72;;;1.70;;
28373;SDS011;15616;40.148;-102.718;2022-12-07T02:47:57;5.03;;;1.83;;
28373;SDS011;15616;40.148;-102.718;2022-12-07T02:50:25;6.47;;;1.77;;
28373;SDS011;15616;40.148;-102.718;2022-12-07T02:52:52;4.22;;;1.70;;
28373;SDS011;15616;40.148;-102.718;2022-12-07T02:55:18;5.03;;;1.80;;
28373;SDS011;15616;40.148;-102.718;2022-12-07T03:00:20;4.85;;;1.80;;
28373;SDS011;15616;40.148;-102.718;2022-12-07T03:02:53;4.72;;;1.77;;
28373;SDS011;15616;40.148;-102.718;2022-12-07T03:05:37;7.70;;;1.83;;
28373;SDS011;15616;40.148;-102.718;2022-12-07T03:14:30;7.30;;;2.10;;
28373;SDS011;15616;40.148;-102.718;2022-12-07T03:17:21;3.83;;;1.77;;
28373;SDS011;15616;40.148;-102.718;2022-12-07T03:19:49;5.70;;;1.80;;
28373;SDS011;15616;40.148;-102.718;2022-12-07T03:22:19;5.85;;;2.15;;
28373;SDS011;15616;40.148;-102.718;2022-12-07T03:24:50;5.03;;;1.45;;
28373;SDS011;15616;40.148;-102.718;2022-12-07T03:27:37;6.03;;;1.70;;
28373;SDS011;15616;40.148;-102.718;2022-12-07T03:32:48;7.63;;;2.13;;
28373;SDS011;15616;40.148;-102.718;2022-12-07T03:35:31;4.97;;;1.58;;
28373;SDS011;15616;40.148;-102.718;2022-12-07T03:38:12;4.43;;;1.60;;
28373;SDS011;15616;40.148;-102.718;2022-12-07T03:41:05;5.28;;;1.70;;
28373;SDS011;15616;40.148;-102.718;2022-12-07T03:43:35;6.97;;;1.90;;
28373;SDS011;15616;40.148;-102.718;2022-12-07T03:46:14;6.78;;;1.70;;
28373;SDS011;15616;40.148;-102.718;2022-12-07T03:48:47;4.40;;;1.60;;
28373;SDS011;15616;40.148;-102.718;2022-12-07T03:51:22;5.35;;;1.85;;
28373;SDS011;15616;40.148;-102.718;2022-12-07T03:53:54;3.60;;;1.60;;
28373;SDS011;15616;40.148;-102.718;2022-12-07T03:56:27;9.63;;;2.00;;
28373;SDS011;15616;40.148;-102.718;2022-12-07T03:58:54;5.85;;;2.03;;
28373;SDS011;15616;40.148;-102.718;2022-12-07T04:01:20;6.03;;;2.08;;
28373;SDS011;15616;40.148;-102.718;2022-12-07T04:03:47;3.65;;;1.65;;
28373;SDS011;15616;40.148;-102.718;2022-12-07T04:06:13;6.38;;;1.90;;
28373;SDS011;15616;40.148;-102.718;2022-12-07T04:08:39;4.68;;;1.55;;
28373;SDS011;15616;40.148;-102.718;2022-12-07T04:11:05;4.18;;;1.83;;
28373;SDS011;15616;40.148;-102.718;2022-12-07T04:13:31;5.63;;;1.75;;
28373;SDS011;15616;40.148;-102.718;2022-12-07T04:16:17;3.35;;;1.33;;
28373;SDS011;15616;40.148;-102.718;2022-12-07T04:18:43;5.18;;;2.00;;
28373;SDS011;15616;40.148;-102.718;2022-12-07T04:21:09;5.28;;;1.80;;
28373;SDS011;15616;40.148;-102.718;2022-12-07T04:23:35;4.60;;;1.80;;
28373;SDS011;15616;40.148;-102.718;2022-12-07T04:26:01;6.28;;;2.03;;
28373;SDS011;15616;40.148;-102.718;2022-12-07T04:28:26;5.00;;;2.00;;
28373;SDS011;15616;40.148;-102.718;2022-12-07T04:30:52;4.43;;;1.58;;
28373;SDS011;15616;40.148;-102.718;2022-12-07T04:33:18;5.57;;;1.80;;
28373;SDS011;15616;40.148;-102.718;2022-12-07T04:35:44;6.18;;;1.90;;
28373;SDS011;15616;40.148;-102.718;2022-12-07T04:38:10;5.38;;;1.95;;
28373;SDS011;15616;40.148;-102.718;2022-12-07T04:40:36;5.18;;;1.83;;
28373;SDS011;15616;40.148;-102.718;2022-12-07T04:43:02;5.15;;;1.67;;
28373;SDS011;15616;40.148;-102.718;2022-12-07T04:45:29;3.88;;;1.45;;
28373;SDS011;15616;40.148;-102.718;2022-12-07T04:47:55;4.60;;;1.58;;
28373;SDS011;15616;40.148;-102.718;2022-12-07T04:50:21;5.38;;;1.83;;
28373;SDS011;15616;40.148;-102.718;2022-12-07T04:52:47;4.63;;;1.65;;
28373;SDS011;15616;40.148;-102.718;2022-12-07T04:55:13;7.82;;;1.95;;
28373;SDS011;15616;40.148;-102.718;2022-12-07T04:57:39;6.47;;;1.80;;
28373;SDS011;15616;40.148;-102.718;2022-12-07T05:00:05;5.78;;;1.70;;
28373;SDS011;15616;40.148;-102.718;2022-12-07T05:02:32;4.13;;;1.63;;
28373;SDS011;15616;40.148;-102.718;2022-12-07T05:04:57;5.38;;;1.80;;
28373;SDS011;15616;40.148;-102.718;2022-12-07T05:07:23;4.38;;;1.55;;
28373;SDS011;15616;40.148;-102.718;2022-12-07T05:09:49;5.47;;;1.77;;
28373;SDS011;15616;40.148;-102.718;2022-12-07T05:12:15;4.18;;;1.45;;
28373;SDS011;15616;40.148;-102.718;2022-12-07T05:14:41;3.80;;;1.45;;
28373;SDS011;15616;40.148;-102.718;2022-12-07T05:17:07;5.55;;;1.73;;
28373;SDS011;15616;40.148;-102.718;2022-12-07T05:19:33;7.20;;;1.73;;
28373;SDS011;15616;40.148;-102.718;2022-12-07T05:21:59;9.15;;;1.73;;
28373;SDS011;15616;40.148;-102.718;2022-12-07T05:24:25;4.15;;;1.75;;
28373;SDS011;15616;40.148;-102.718;2022-12-07T05:26:51;5.80;;;1.75;;
28373;SDS011;15616;40.148;-102.718;2022-12-07T05:29:17;4.63;;;1.80;;
28373;SDS011;15616;40.148;-102.718;2022-12-07T05:31:43;3.50;;;1.50;;
28373;SDS011;15616;40.148;-102.718;2022-12-07T05:34:09;5.25;;;1.67;;
28373;SDS011;15616;40.148;-102.718;2022-12-07T05:36:36;3.63;;;1.50;;
28373;SDS011;15616;40.148;-102.718;2022-12-07T05:39:02;5.13;;;1.77;;
28373;SDS011;15616;40.148;-102.718;2022-12-07T05:41:28;4.53;;;1.67;;
28373;SDS011;15616;40.148;-102.718;2022-12-07T05:44:12;3.67;;;1.50;;
28373;SDS011;15616;40.148;-102.718;2022-12-07T05:46:38;4.65;;;1.42;;
28373;SDS011;15616;40.148;-102.718;2022-12-07T05:49:04;4.22;;;1.80;;
28373;SDS011;15616;40.148;-102.718;2022-12-07T05:51:30;5.93;;;1.60;;
28373;SDS011;15616;40.148;-102.718;2022-12-07T05:53:56;3.95;;;1.42;;
28373;SDS011;15616;40.148;-102.718;2022-12-07T05:56:22;4.47;;;1.60;;
28373;SDS011;15616;40.148;-102.718;2022-12-07T05:58:48;5.50;;;1.40;;
28373;SDS011;15616;40.148;-102.718;2022-12-07T06:01:33;4.90;;;1.60;;
28373;SDS011;15616;40.148;-102.718;2022-12-07T06:03:58;4.68;;;1.63;;
28373;SDS011;15616;40.148;-102.718;2022-12-07T06:06:24;4.38;;;1.63;;
28373;SDS011;15616;40.148;-102.718;2022-12-07T06:08:50;4.32;;;1.65;;
28373;SDS011;15616;40.148;-102.718;2022-12-07T06:11:16;3.78;;;1.40;;
28373;SDS011;15616;40.148;-102.718;2022-12-07T06:14:01;5.43;;;1.60;;
28373;SDS011;15616;40.148;-102.718;2022-12-07T06:16:27;9.57;;;1.65;;
28373;SDS011;15616;40.148;-102.718;2022-12-07T06:18:53;5.00;;;1.80;;
28373;SDS011;15616;40.148;-102.718;2022-12-07T06:21:19;4.97;;;1.65;;
28373;SDS011;15616;40.148;-102.718;2022-12-07T06:23:45;3.10;;;1.70;;
28373;SDS011;15616;40.148;-102.718;2022-12-07T06:26:12;4.28;;;1.45;;
28373;SDS011;15616;40.148;-102.718;2022-12-07T06:28:39;4.90;;;1.55;;
28373;SDS011;15616;40.148;-102.718;2022-12-07T06:31:05;5.97;;;1.63;;
28373;SDS011;15616;40.148;-102.718;2022-12-07T06:33:32;6.45;;;2.17;;
28373;SDS011;15616;40.148;-102.718;2022-12-07T06:35:58;5.85;;;1.70;;
28373;SDS011;15616;40.148;-102.718;2022-12-07T06:38:24;6.45;;;1.70;;
28373;SDS011;15616;40.148;-102.718;2022-12-07T06:40:50;7.53;;;1.73;;
28373;SDS011;15616;40.148;-102.718;2022-12-07T06:43:16;7.50;;;2.10;;
28373;SDS011;15616;40.148;-102.718;2022-12-07T06:45:42;7.78;;;1.80;;
28373;SDS011;15616;40.148;-102.718;2022-12-07T06:48:08;9.77;;;1.98;;
28373;SDS011;15616;40.148;-102.718;2022-12-07T06:50:34;12.40;;;2.42;;
28373;SDS011;15616;40.148;-102.718;2022-12-07T06:53:00;7.65;;;1.90;;
28373;SDS011;15616;40.148;-102.718;2022-12-07T06:55:26;8.70;;;2.22;;
28373;SDS011;15616;40.148;-102.718;2022-12-07T06:57:52;15.48;;;2.42;;
28373;SDS011;15616;40.148;-102.718;2022-12-07T07:00:18;14.88;;;2.38;;
28373;SDS011;15616;40.148;-102.718;2022-12-07T07:02:44;9.95;;;2.15;;
28373;SDS011;15616;40.148;-102.718;2022-12-07T07:05:10;17.00;;;2.47;;
28373;SDS011;15616;40.148;-102.718;2022-12-07T07:07:36;17.60;;;2.30;;
28373;SDS011;15616;40.148;-102.718;2022-12-07T07:10:02;21.27;;;2.67;;
28373;SDS011;15616;40.148;-102.718;2022-12-07T07:12:29;10.23;;;2.38;;
28373;SDS011;15616;40.148;-102.718;2022-12-07T07:14:55;13.65;;;2.13;;
28373;SDS011;15616;40.148;-102.718;2022-12-07T07:17:21;24.67;;;2.30;;
28373;SDS011;15616;40.148;-102.718;2022-12-07T07:19:47;7.55;;;1.80;;
28373;SDS011;15616;40.148;-102.718;2022-12-07T07:22:13;8.05;;;1.63;;
28373;SDS011;15616;40.148;-102.718;2022-12-07T07:24:39;10.43;;;2.00;;
28373;SDS011;15616;40.148;-102.718;2022-12-07T07:27:05;10.95;;;1.70;;
28373;SDS011;15616;40.148;-102.718;2022-12-07T07:29:31;16.27;;;2.22;;
28373;SDS011;15616;40.148;-102.718;2022-12-07T07:31:57;11.50;;;1.65;;
28373;SDS011;15616;40.148;-102.718;2022-12-07T07:34:22;8.32;;;1.60;;
28373;SDS011;15616;40.148;-102.718;2022-12-07T07:36:48;12.55;;;2.13;;
28373;SDS011;15616;40.148;-102.718;2022-12-07T07:39:14;15.02;;;1.63;;
28373;SDS011;15616;40.148;-102.718;2022-12-07T07:41:40;13.45;;;1.70;;
28373;SDS011;15616;40.148;-102.718;2022-12-07T07:44:06;11.05;;;1.90;;
28373;SDS011;15616;40.148;-102.718;2022-12-07T07:46:32;5.90;;;1.70;;
28373;SDS011;15616;40.148;-102.718;2022-12-07T07:48:58;9.55;;;2.28;;
28373;SDS011;15616;40.148;-102.718;2022-12-07T07:51:24;9.68;;;2.03;;
28373;SDS011;15616;40.148;-102.718;2022-12-07T07:53:50;9.07;;;2.00;;
28373;SDS011;15616;40.148;-102.718;2022-12-07T07:56:16;7.32;;;1.77;;
28373;SDS011;15616;40.148;-102.718;2022-12-07T07:58:42;15.95;;;2.28;;
28373;SDS011;15616;40.148;-102.718;2022-12-07T08:01:08;12.80;;;2.45;;
28373;SDS011;15616;40.148;-102.718;2022-12-07T08:03:34;12.57;;;1.98;;
28373;SDS011;15616;40.148;-102.718;2022-12-07T08:06:04;12.27;;;1.77;;
28373;SDS011;15616;40.148;-102.718;2022-12-07T08:08:30;17.73;;;2.65;;
28373;SDS011;15616;40.148;-102.718;2022-12-07T08:10:56;10.65;;;2.05;;
28373;SDS011;15616;40.148;-102.718;2022-12-07T08:13:25;12.13;;;2.00;;
28373;SDS011;15616;40.148;-102.718;2022-12-07T08:15:52;9.38;;;2.30;;
28373;SDS011;15616;40.148;-102.718;2022-12-07T08:18:18;21.75;;;2.33;;
28373;SDS011;15616;40.148;-102.718;2022-12-07T08:20:43;14.05;;;2.40;;
28373;SDS011;15616;40.148;-102.718;2022-12-07T08:23:09;25.92;;;3.30;;
28373;SDS011;15616;40.148;-102.718;2022-12-07T08:25:36;17.33;;;2.45;;
28373;SDS011;15616;40.148;-102.718;2022-12-07T08:28:02;12.75;;;2.38;;
28373;SDS011;15616;40.148;-102.718;2022-12-07T08:30:28;19.52;;;2.53;;
28373;SDS011;15616;40.148;-102.718;2022-12-07T08:32:55;17.35;;;2.40;;
28373;SDS011;15616;40.148;-102.718;2022-12-07T08:35:22;27.52;;;3.50;;
28373;SDS011;15616;40.148;-102.718;2022-12-07T08:37:48;16.15;;;2.97;;
28373;SDS011;15616;40.148;-102.718;2022-12-07T08:40:14;19.10;;;3.05;;
28373;SDS011;15616;40.148;-102.718;2022-12-07T08:42:44;21.63;;;3.22;;
28373;SDS011;15616;40.148;-102.718;2022-12-07T08:45:14;26.25;;;2.78;;
28373;SDS011;15616;40.148;-102.718;2022-12-07T08:47:43;18.40;;;3.58;;
28373;SDS011;15616;40.148;-102.718;2022-12-07T08:50:13;28.08;;;3.58;;
28373;SDS011;15616;40.148;-102.718;2022-12-07T08:52:40;16.90;;;3.13;;
28373;SDS011;15616;40.148;-102.718;2022-12-07T08:55:08;20.17;;;2.65;;
28373;SDS011;15616;40.148;-102.718;2022-12-07T08:57:36;21.30;;;2.92;;
28373;SDS011;15616;40.148;-102.718;2022-12-07T09:00:05;16.90;;;2.90;;
28373;SDS011;15616;40.148;-102.718;2022-12-07T09:02:32;24.30;;;3.83;;
28373;SDS011;15616;40.148;-102.718;2022-12-07T09:04:58;25.65;;;3.35;;
28373;SDS011;15616;40.148;-102.718;2022-12-07T09:07:24;32.33;;;2.90;;
28373;SDS011;15616;40.148;-102.718;2022-12-07T09:09:51;26.67;;;3.75;;
28373;SDS011;15616;40.148;-102.718;2022-12-07T09:12:17;28.02;;;3.55;;
28373;SDS011;15616;40.148;-102.718;2022-12-07T09:14:43;22.45;;;3.20;;
28373;SDS011;15616;40.148;-102.718;2022-12-07T09:17:09;50.15;;;4.05;;
28373;SDS011;15616;40.148;-102.718;2022-12-07T09:19:37;25.80;;;3.65;;
28373;SDS011;15616;40.148;-102.718;2022-12-07T09:22:04;27.20;;;4.15;;
28373;SDS011;15616;40.148;-102.718;2022-12-07T09:24:30;34.28;;;3.83;;
28373;SDS011;15616;40.148;-102.718;2022-12-07T09:26:57;22.95;;;3.40;;
28373;SDS011;15616;40.148;-102.718;2022-12-07T09:29:23;23.27;;;4.05;;
28373;SDS011;15616;40.148;-102.718;2022-12-07T09:31:50;41.97;;;4.13;;
28373;SDS011;15616;40.148;-102.718;2022-12-07T09:34:17;39.83;;;4.32;;
28373;SDS011;15616;40.148;-102.718;2022-12-07T09:36:44;32.95;;;4.25;;
28373;SDS011;15616;40.148;-102.718;2022-12-07T09:39:10;31.20;;;4.57;;
28373;SDS011;15616;40.148;-102.718;2022-12-07T09:41:37;30.80;;;4.05;;
28373;SDS011;15616;40.148;-102.718;2022-12-07T09:44:06;22.40;;;3.40;;
28373;SDS011;15616;40.148;-102.718;2022-12-07T09:46:39;36.67;;;3.38;;
28373;SDS011;15616;40.148;-102.718;2022-12-07T09:49:14;22.45;;;3.13;;
28373;SDS011;15616;40.148;-102.718;2022-12-07T09:51:43;24.05;;;2.88;;
28373;SDS011;15616;40.148;-102.718;2022-12-07T09:54:13;23.48;;;2.88;;
28373;SDS011;15616;40.148;-102.718;2022-12-07T09:56:41;23.30;;;3.03;;
28373;SDS011;15616;40.148;-102.718;2022-12-07T09:59:13;18.10;;;2.95;;
28373;SDS011;15616;40.148;-102.718;2022-12-07T10:01:43;25.75;;;3.30;;
28373;SDS011;15616;40.148;-102.718;2022-12-07T10:04:14;31.45;;;3.55;;
28373;SDS011;15616;40.148;-102.718;2022-12-07T10:06:43;32.97;;;3.15;;
28373;SDS011;15616;40.148;-102.718;2022-12-07T10:09:11;24.15;;;3.13;;
28373;SDS011;15616;40.148;-102.718;2022-12-07T10:12:24;24.88;;;3.40;;
28373;SDS011;15616;40.148;-102.718;2022-12-07T10:14:34;51.63;;;4.40;;
28373;SDS011;15616;40.148;-102.718;2022-12-07T10:17:02;36.03;;;3.60;;
28373;SDS011;15616;40.148;-102.718;2022-12-07T10:19:48;28.23;;;3.13;;
28373;SDS011;15616;40.148;-102.718;2022-12-07T10:22:15;32.85;;;3.95;;
28373;SDS011;15616;40.148;-102.718;2022-12-07T10:24:47;23.10;;;3.33;;
28373;SDS011;15616;40.148;-102.718;2022-12-07T10:27:20;42.83;;;3.28;;
28373;SDS011;15616;40.148;-102.718;2022-12-07T10:29:51;26.17;;;3.47;;
28373;SDS011;15616;40.148;-102.718;2022-12-07T10:34:44;29.70;;;4.10;;
28373;SDS011;15616;40.148;-102.718;2022-12-07T10:37:14;31.90;;;3.70;;
28373;SDS011;15616;40.148;-102.718;2022-12-07T10:39:42;24.42;;;3.40;;
28373;SDS011;15616;40.148;-102.718;2022-12-07T10:42:25;37.03;;;3.83;;
28373;SDS011;15616;40.148;-102.718;2022-12-07T10:45:14;31.67;;;3.33;;
28373;SDS011;15616;40.148;-102.718;2022-12-07T10:53:16;32.38;;;3.78;;
28373;SDS011;15616;40.148;-102.718;2022-12-07T10:55:56;20.98;;;3.28;;
28373;SDS011;15616;40.148;-102.718;2022-12-07T10:58:53;26.10;;;3.55;;
28373;SDS011;15616;40.148;-102.718;2022-12-07T11:04:21;29.30;;;3.60;;
28373;SDS011;15616;40.148;-102.718;2022-12-07T11:07:14;21.75;;;3.13;;
28373;SDS011;15616;40.148;-102.718;2022-12-07T11:10:22;20.65;;;2.55;;
28373;SDS011;15616;40.148;-102.718;2022-12-07T11:22:20;29.88;;;3.25;;
28373;SDS011;15616;40.148;-102.718;2022-12-07T11:29:49;41.75;;;4.43;;
28373;SDS011;15616;40.148;-102.718;2022-12-07T11:38:12;34.03;;;4.50;;
28373;SDS011;15616;40.148;-102.718;2022-12-07T11:40:48;40.50;;;4.47;;
28373;SDS011;15616;40.148;-102.718;2022-12-07T11:43:20;49.27;;;5.40;;
28373;SDS011;15616;40.148;-102.718;2022-12-07T11:45:56;37.47;;;4.57;;
28373;SDS011;15616;40.148;-102.718;2022-12-07T11:49:02;36.00;;;4.43;;
28373;SDS011;15616;40.148;-102.718;2022-12-07T11:51:34;29.30;;;4.53;;
28373;SDS011;15616;40.148;-102.718;2022-12-07T11:54:15;37.33;;;3.67;;
28373;SDS011;15616;40.148;-102.718;2022-12-07T11:56:47;30.80;;;4.45;;
28373;SDS011;15616;40.148;-102.718;2022-12-07T11:59:23;32.00;;;4.07;;
28373;SDS011;15616;40.148;-102.718;2022-12-07T12:05:02;35.13;;;3.83;;
28373;SDS011;15616;40.148;-102.718;2022-12-07T12:07:38;65.38;;;4.88;;
28373;SDS011;15616;40.148;-102.718;2022-12-07T12:10:17;50.65;;;4.53;;
28373;SDS011;15616;40.148;-102.718;2022-12-07T12:15:39;42.97;;;4.72;;
28373;SDS011;15616;40.148;-102.718;2022-12-07T12:23:57;39.53;;;4.55;;
28373;SDS011;15616;40.148;-102.718;2022-12-07T12:26:30;31.73;;;4.38;;
28373;SDS011;15616;40.148;-102.718;2022-12-07T12:28:59;28.40;;;3.55;;
28373;SDS011;15616;40.148;-102.718;2022-12-07T12:31:33;22.73;;;3.53;;
28373;SDS011;15616;40.148;-102.718;2022-12-07T12:34:56;22.00;;;3.22;;
28373;SDS011;15616;40.148;-102.718;2022-12-07T12:36:57;25.48;;;3.70;;
28373;SDS011;15616;40.148;-102.718;2022-12-07T12:39:24;26.00;;;4.32;;
28373;SDS011;15616;40.148;-102.718;2022-12-07T12:41:51;34.85;;;5.03;;
28373;SDS011;15616;40.148;-102.718;2022-12-07T12:51:46;28.58;;;3.35;;
28373;SDS011;15616;40.148;-102.718;2022-12-07T12:56:50;29.15;;;3.63;;
28373;SDS011;15616;40.148;-102.718;2022-12-07T12:59:33;39.28;;;4.22;;
28373;SDS011;15616;40.148;-102.718;2022-12-07T13:02:22;38.88;;;4.78;;
28373;SDS011;15616;40.148;-102.718;2022-12-07T13:12:59;23.90;;;3.60;;
28373;SDS011;15616;40.148;-102.718;2022-12-07T13:15:47;26.08;;;3.50;;
28373;SDS011;15616;40.148;-102.718;2022-12-07T13:28:47;27.98;;;3.45;;
28373;SDS011;15616;40.148;-102.718;2022-12-07T13:33:50;34.53;;;3.45;;
28373;SDS011;15616;40.148;-102.718;2022-12-07T13:36:26;40.35;;;3.75;;
28373;SDS011;15616;40.148;-102.718;2022-12-07T13:39:09;25.03;;;2.80;;
28373;SDS011;15616;40.148;-102.718;2022-12-07T13:41:41;28.23;;;4.03;;
28373;SDS011;15616;40.148;-102.718;2022-12-07T13:44:11;34.72;;;4.25;;
28373;SDS011;15616;40.148;-102.718;2022-12-07T13:49:24;33.17;;;4.38;;
28373;SDS011;15616;40.148;-102.718;2022-12-07T13:51:52;34.08;;;4.38;;
28373;SDS011;15616;40.148;-102.718;2022-12-07T13:54:19;29.13;;;4.32;;
28373;SDS011;15616;40.148;-102.718;2022-12-07T13:56:50;38.53;;;4.20;;
28373;SDS011;15616;40.148;-102.718;2022-12-07T13:59:24;21.38;;;3.75;;
28373;SDS011;15616;40.148;-102.718;2022-12-07T14:01:50;29.83;;;3.47;;
28373;SDS011;15616;40.148;-102.718;2022-12-07T14:04:18;31.58;;;4.32;;
28373;SDS011;15616;40.148;-102.718;2022-12-07T14:06:51;36.80;;;3.90;;
28373;SDS011;15616;40.148;-102.718;2022-12-07T14:11:48;36.60;;;4.13;;
28373;SDS011;15616;40.148;-102.718;2022-12-07T14:14:24;40.90;;;3.95;;
28373;SDS011;15616;40.148;-102.718;2022-12-07T14:16:57;28.67;;;3.55;;
28373;SDS011;15616;40.148;-102.718;2022-12-07T14:19:49;23.02;;;3.50;;
28373;SDS011;15616;40.148;-102.718;2022-12-07T14:30:27;24.55;;;3.85;;
28373;SDS011;15616;40.148;-102.718;2022-12-07T14:32:58;31.95;;;3.47;;
28373;SDS011;15616;40.148;-102.718;2022-12-07T14:35:26;31.02;;;2.55;;
28373;SDS011;15616;40.148;-102.718;2022-12-07T14:37:53;30.60;;;3.90;;
28373;SDS011;15616;40.148;-102.718;2022-12-07T14:40:20;31.27;;;3.47;;
28373;SDS011;15616;40.148;-102.718;2022-12-07T14:42:49;24.17;;;3.22;;
28373;SDS011;15616;40.148;-102.718;2022-12-07T14:45:19;32.97;;;3.90;;
28373;SDS011;15616;40.148;-102.718;2022-12-07T14:47:47;30.55;;;3.67;;
28373;SDS011;15616;40.148;-102.718;2022-12-07T14:50:14;32.13;;;3.95;;
28373;SDS011;15616;40.148;-102.718;2022-12-07T14:52:44;30.52;;;3.55;;
28373;SDS011;15616;40.148;-102.718;2022-12-07T14:55:24;25.43;;;3.40;;
28373;SDS011;15616;40.148;-102.718;2022-12-07T14:57:50;35.90;;;4.30;;
28373;SDS011;15616;40.148;-102.718;2022-12-07T15:00:17;30.45;;;3.58;;
28373;SDS011;15616;40.148;-102.718;2022-12-07T15:02:46;43.83;;;4.50;;
28373;SDS011;15616;40.148;-102.718;2022-12-07T15:05:12;28.70;;;3.80;;
28373;SDS011;15616;40.148;-102.718;2022-12-07T15:07:39;38.08;;;3.97;;
28373;SDS011;15616;40.148;-102.718;2022-12-07T15:10:18;20.73;;;3.20;;
28373;SDS011;15616;40.148;-102.718;2022-12-07T15:12:47;30.58;;;3.28;;
28373;SDS011;15616;40.148;-102.718;2022-12-07T15:15:13;27.05;;;3.20;;
28373;SDS011;15616;40.148;-102.718;2022-12-07T15:17:39;24.70;;;3.40;;
28373;SDS011;15616;40.148;-102.718;2022-12-07T15:20:07;30.35;;;3.47;;
28373;SDS011;15616;40.148;-102.718;2022-12-07T15:22:37;27.42;;;3.13;;
28373;SDS011;15616;40.148;-102.718;2022-12-07T15:25:03;26.80;;;3.35;;
28373;SDS011;15616;40.148;-102.718;2022-12-07T15:27:31;20.65;;;3.47;;
28373;SDS011;15616;40.148;-102.718;2022-12-07T15:29:57;29.55;;;3.58;;
28373;SDS011;15616;40.148;-102.718;2022-12-07T15:32:23;26.13;;;3.15;;
28373;SDS011;15616;40.148;-102.718;2022-12-07T15:34:49;28.38;;;4.25;;
28373;SDS011;15616;40.148;-102.718;2022-12-07T15:37:15;28.17;;;3.35;;
28373;SDS011;15616;40.148;-102.718;2022-12-07T15:39:41;29.02;;;3.33;;
28373;SDS011;15616;40.148;-102.718;2022-12-07T15:42:07;27.55;;;3.50;;
28373;SDS011;15616;40.148;-102.718;2022-12-07T15:44:33;20.42;;;2.95;;
28373;SDS011;15616;40.148;-102.718;2022-12-07T15:47:18;24.83;;;3.38;;
28373;SDS011;15616;40.148;-102.718;2022-12-07T15:49:44;27.45;;;3.30;;
28373;SDS011;15616;40.148;-102.718;2022-12-07T15:52:10;20.35;;;3.25;;
28373;SDS011;15616;40.148;-102.718;2022-12-07T15:54:36;20.10;;;2.65;;
28373;SDS011;15616;40.148;-102.718;2022-12-07T15:57:02;18.52;;;2.75;;
28373;SDS011;15616;40.148;-102.718;2022-12-07T15:59:28;28.90;;;3.58;;
28373;SDS011;15616;40.148;-102.718;2022-12-07T16:01:55;31.00;;;3.75;;
28373;SDS011;15616;40.148;-102.718;2022-12-07T16:04:22;21.08;;;3.13;;
28373;SDS011;15616;40.148;-102.718;2022-12-07T16:06:48;21.88;;;3.13;;
28373;SDS011;15616;40.148;-102.718;2022-12-07T16:09:16;18.05;;;3.20;;
28373;SDS011;15616;40.148;-102.718;2022-12-07T16:11:42;33.63;;;3.65;;
28373;SDS011;15616;40.148;-102.718;2022-12-07T16:14:08;23.88;;;3.55;;